<?xml version="1.0" encoding="utf-8"?>
<gpx xmlns:xsi="http://www.w3.org/2001/XMLSchema-instance" xmlns:xsd="http://www.w3.org/2001/XMLSchema" version="1.1" creator="Shapelink.com" xmlns="http://www.topografix.com/GPX/1/1" xmlns:gpxtpx="http://www.garmin.com/xmlschemas/TrackPointExtension/v1">
  <metadata>
    <name>Gåing 1.58 km, 2012-05-08</name>
    <desc></desc>
    <author><name>Mikael Blom</name></author> 
    <time>2012-05-08T18:02:01Z</time>
  </metadata>
  <trk>
    <name>Gåing 1.58 km, 2012-05-08</name>
    <trkseg>
      <trkpt lat="59.9789038" lon="17.7398443">
        <ele>29.4575</ele>
        <time>2012-05-08T18:02:01Z</time>
      </trkpt>
      <trkpt lat="59.9789427" lon="17.7397288">
        <ele>32.8223</ele>
        <time>2012-05-08T18:02:07Z</time>
      </trkpt>
      <trkpt lat="59.9789557" lon="17.7395951">
        <ele>35.7061</ele>
        <time>2012-05-08T18:02:11Z</time>
      </trkpt>
      <trkpt lat="59.9789675" lon="17.7395532">
        <ele>36.1868</ele>
        <time>2012-05-08T18:02:13Z</time>
      </trkpt>
      <trkpt lat="59.9789789" lon="17.7394362">
        <ele>38.5901</ele>
        <time>2012-05-08T18:02:17Z</time>
      </trkpt>
      <trkpt lat="59.9789433" lon="17.7392873">
        <ele>41.474</ele>
        <time>2012-05-08T18:02:25Z</time>
      </trkpt>
      <trkpt lat="59.9789558" lon="17.7391885">
        <ele>44.8386</ele>
        <time>2012-05-08T18:02:30Z</time>
      </trkpt>
      <trkpt lat="59.9789918" lon="17.7390874">
        <ele>46.2806</ele>
        <time>2012-05-08T18:02:34Z</time>
      </trkpt>
      <trkpt lat="59.9790524" lon="17.7390072">
        <ele>46.7612</ele>
        <time>2012-05-08T18:02:39Z</time>
      </trkpt>
      <trkpt lat="59.9791045" lon="17.7389922">
        <ele>47.2418</ele>
        <time>2012-05-08T18:02:43Z</time>
      </trkpt>
      <trkpt lat="59.9792127" lon="17.7390363">
        <ele>46.2806</ele>
        <time>2012-05-08T18:02:52Z</time>
      </trkpt>
      <trkpt lat="59.9792438" lon="17.7390573">
        <ele>46.2806</ele>
        <time>2012-05-08T18:02:55Z</time>
      </trkpt>
      <trkpt lat="59.9792644" lon="17.7390801">
        <ele>45.3192</ele>
        <time>2012-05-08T18:02:57Z</time>
      </trkpt>
      <trkpt lat="59.9793695" lon="17.738958">
        <ele>45.7999</ele>
        <time>2012-05-08T18:03:05Z</time>
      </trkpt>
      <trkpt lat="59.9794448" lon="17.738875">
        <ele>47.2418</ele>
        <time>2012-05-08T18:03:10Z</time>
      </trkpt>
      <trkpt lat="59.9794887" lon="17.7388513">
        <ele>47.2418</ele>
        <time>2012-05-08T18:03:14Z</time>
      </trkpt>
      <trkpt lat="59.9795664" lon="17.7388436">
        <ele>48.684</ele>
        <time>2012-05-08T18:03:20Z</time>
      </trkpt>
      <trkpt lat="59.9797005" lon="17.7386607">
        <ele>51.5679</ele>
        <time>2012-05-08T18:03:27Z</time>
      </trkpt>
      <trkpt lat="59.9798241" lon="17.7386653">
        <ele>53.0098</ele>
        <time>2012-05-08T18:03:34Z</time>
      </trkpt>
      <trkpt lat="59.9799082" lon="17.738747">
        <ele>53.0098</ele>
        <time>2012-05-08T18:03:39Z</time>
      </trkpt>
      <trkpt lat="59.9799426" lon="17.7387608">
        <ele>53.4905</ele>
        <time>2012-05-08T18:03:41Z</time>
      </trkpt>
      <trkpt lat="59.9800047" lon="17.7387768">
        <ele>53.0098</ele>
        <time>2012-05-08T18:03:45Z</time>
      </trkpt>
      <trkpt lat="59.9801057" lon="17.7388291">
        <ele>52.5292</ele>
        <time>2012-05-08T18:03:52Z</time>
      </trkpt>
      <trkpt lat="59.9801239" lon="17.7388121">
        <ele>52.0486</ele>
        <time>2012-05-08T18:03:54Z</time>
      </trkpt>
      <trkpt lat="59.9801674" lon="17.7387762">
        <ele>51.0872</ele>
        <time>2012-05-08T18:04:00Z</time>
      </trkpt>
      <trkpt lat="59.9801948" lon="17.7387634">
        <ele>51.0872</ele>
        <time>2012-05-08T18:04:02Z</time>
      </trkpt>
      <trkpt lat="59.9802653" lon="17.7387886">
        <ele>47.7225</ele>
        <time>2012-05-08T18:04:07Z</time>
      </trkpt>
      <trkpt lat="59.9803032" lon="17.7387631">
        <ele>48.2034</ele>
        <time>2012-05-08T18:04:10Z</time>
      </trkpt>
      <trkpt lat="59.9804181" lon="17.73855">
        <ele>52.5292</ele>
        <time>2012-05-08T18:04:17Z</time>
      </trkpt>
      <trkpt lat="59.9805719" lon="17.738416">
        <ele>54.4518</ele>
        <time>2012-05-08T18:04:24Z</time>
      </trkpt>
      <trkpt lat="59.980617" lon="17.7384488">
        <ele>52.0486</ele>
        <time>2012-05-08T18:04:29Z</time>
      </trkpt>
      <trkpt lat="59.980717" lon="17.7383085">
        <ele>55.8938</ele>
        <time>2012-05-08T18:04:34Z</time>
      </trkpt>
      <trkpt lat="59.9807562" lon="17.738329">
        <ele>58.2971</ele>
        <time>2012-05-08T18:04:36Z</time>
      </trkpt>
      <trkpt lat="59.9808256" lon="17.7383507">
        <ele>61.181</ele>
        <time>2012-05-08T18:04:41Z</time>
      </trkpt>
      <trkpt lat="59.9809276" lon="17.738446">
        <ele>59.2584</ele>
        <time>2012-05-08T18:04:47Z</time>
      </trkpt>
      <trkpt lat="59.9810185" lon="17.7384653">
        <ele>55.4131</ele>
        <time>2012-05-08T18:04:54Z</time>
      </trkpt>
      <trkpt lat="59.9810212" lon="17.7385499">
        <ele>49.1646</ele>
        <time>2012-05-08T18:04:59Z</time>
      </trkpt>
      <trkpt lat="59.9811771" lon="17.738383">
        <ele>56.3745</ele>
        <time>2012-05-08T18:05:06Z</time>
      </trkpt>
      <trkpt lat="59.9813138" lon="17.7383046">
        <ele>60.7003</ele>
        <time>2012-05-08T18:05:12Z</time>
      </trkpt>
      <trkpt lat="59.9813811" lon="17.7382665">
        <ele>64.0651</ele>
        <time>2012-05-08T18:05:17Z</time>
      </trkpt>
      <trkpt lat="59.9814422" lon="17.7382674">
        <ele>59.7391</ele>
        <time>2012-05-08T18:05:22Z</time>
      </trkpt>
      <trkpt lat="59.9815748" lon="17.7382442">
        <ele>64.0651</ele>
        <time>2012-05-08T18:05:28Z</time>
      </trkpt>
      <trkpt lat="59.9816651" lon="17.7382178">
        <ele>65.9877</ele>
        <time>2012-05-08T18:05:32Z</time>
      </trkpt>
      <trkpt lat="59.9817215" lon="17.7381773">
        <ele>66.949</ele>
        <time>2012-05-08T18:05:37Z</time>
      </trkpt>
      <trkpt lat="59.9817538" lon="17.7382259">
        <ele>65.9877</ele>
        <time>2012-05-08T18:05:41Z</time>
      </trkpt>
      <trkpt lat="59.9818466" lon="17.7381945">
        <ele>67.4297</ele>
        <time>2012-05-08T18:05:46Z</time>
      </trkpt>
      <trkpt lat="59.9819064" lon="17.7380982">
        <ele>67.4297</ele>
        <time>2012-05-08T18:05:51Z</time>
      </trkpt>
      <trkpt lat="59.9819663" lon="17.738083">
        <ele>63.1036</ele>
        <time>2012-05-08T18:05:57Z</time>
      </trkpt>
      <trkpt lat="59.9820227" lon="17.738086">
        <ele>61.6617</ele>
        <time>2012-05-08T18:06:02Z</time>
      </trkpt>
      <trkpt lat="59.9821077" lon="17.7380775">
        <ele>62.1423</ele>
        <time>2012-05-08T18:06:06Z</time>
      </trkpt>
      <trkpt lat="59.9821686" lon="17.73805">
        <ele>56.8551</ele>
        <time>2012-05-08T18:06:11Z</time>
      </trkpt>
      <trkpt lat="59.9822051" lon="17.7380732">
        <ele>54.9324</ele>
        <time>2012-05-08T18:06:15Z</time>
      </trkpt>
      <trkpt lat="59.9822833" lon="17.7380406">
        <ele>53.4905</ele>
        <time>2012-05-08T18:06:21Z</time>
      </trkpt>
      <trkpt lat="59.9823875" lon="17.7380539">
        <ele>55.4131</ele>
        <time>2012-05-08T18:06:26Z</time>
      </trkpt>
      <trkpt lat="59.9824882" lon="17.7380456">
        <ele>53.0098</ele>
        <time>2012-05-08T18:06:32Z</time>
      </trkpt>
      <trkpt lat="59.9825568" lon="17.7380654">
        <ele>52.5292</ele>
        <time>2012-05-08T18:06:36Z</time>
      </trkpt>
      <trkpt lat="59.9825745" lon="17.7380812">
        <ele>51.5679</ele>
        <time>2012-05-08T18:06:39Z</time>
      </trkpt>
      <trkpt lat="59.9826088" lon="17.738113">
        <ele>52.5292</ele>
        <time>2012-05-08T18:06:41Z</time>
      </trkpt>
      <trkpt lat="59.9827213" lon="17.7381251">
        <ele>52.5292</ele>
        <time>2012-05-08T18:06:47Z</time>
      </trkpt>
      <trkpt lat="59.9827655" lon="17.738084">
        <ele>53.4905</ele>
        <time>2012-05-08T18:06:49Z</time>
      </trkpt>
      <trkpt lat="59.9828801" lon="17.738156">
        <ele>57.8165</ele>
        <time>2012-05-08T18:06:55Z</time>
      </trkpt>
      <trkpt lat="59.9829719" lon="17.7381385">
        <ele>63.5844</ele>
        <time>2012-05-08T18:07:01Z</time>
      </trkpt>
      <trkpt lat="59.9829993" lon="17.738097">
        <ele>65.5071</ele>
        <time>2012-05-08T18:07:06Z</time>
      </trkpt>
      <trkpt lat="59.9831537" lon="17.7380325">
        <ele>66.4683</ele>
        <time>2012-05-08T18:07:12Z</time>
      </trkpt>
      <trkpt lat="59.9832552" lon="17.7379312">
        <ele>67.9103</ele>
        <time>2012-05-08T18:07:17Z</time>
      </trkpt>
      <trkpt lat="59.9833856" lon="17.7379215">
        <ele>72.2362</ele>
        <time>2012-05-08T18:07:24Z</time>
      </trkpt>
      <trkpt lat="59.9834498" lon="17.7378314">
        <ele>69.3523</ele>
        <time>2012-05-08T18:07:29Z</time>
      </trkpt>
      <trkpt lat="59.9834884" lon="17.7378453">
        <ele>68.3909</ele>
        <time>2012-05-08T18:07:32Z</time>
      </trkpt>
      <trkpt lat="59.9835325" lon="17.7378266">
        <ele>69.8329</ele>
        <time>2012-05-08T18:07:34Z</time>
      </trkpt>
      <trkpt lat="59.9836495" lon="17.7378531">
        <ele>72.2362</ele>
        <time>2012-05-08T18:07:40Z</time>
      </trkpt>
      <trkpt lat="59.9837893" lon="17.737879">
        <ele>73.1976</ele>
        <time>2012-05-08T18:07:47Z</time>
      </trkpt>
      <trkpt lat="59.9838706" lon="17.7379118">
        <ele>71.2749</ele>
        <time>2012-05-08T18:07:53Z</time>
      </trkpt>
      <trkpt lat="59.9839871" lon="17.7379251">
        <ele>75.1202</ele>
        <time>2012-05-08T18:07:59Z</time>
      </trkpt>
      <trkpt lat="59.9840582" lon="17.737964">
        <ele>74.6395</ele>
        <time>2012-05-08T18:08:04Z</time>
      </trkpt>
      <trkpt lat="59.9841596" lon="17.7380203">
        <ele>70.7942</ele>
        <time>2012-05-08T18:08:12Z</time>
      </trkpt>
      <trkpt lat="59.9842446" lon="17.7379674">
        <ele>73.1976</ele>
        <time>2012-05-08T18:08:18Z</time>
      </trkpt>
      <trkpt lat="59.9843455" lon="17.7379266">
        <ele>69.3523</ele>
        <time>2012-05-08T18:08:25Z</time>
      </trkpt>
      <trkpt lat="59.9844456" lon="17.7379255">
        <ele>69.3523</ele>
        <time>2012-05-08T18:08:30Z</time>
      </trkpt>
      <trkpt lat="59.9845222" lon="17.7380146">
        <ele>65.5071</ele>
        <time>2012-05-08T18:08:36Z</time>
      </trkpt>
      <trkpt lat="59.9846048" lon="17.7380219">
        <ele>64.5457</ele>
        <time>2012-05-08T18:08:41Z</time>
      </trkpt>
      <trkpt lat="59.9846382" lon="17.738036">
        <ele>60.2197</ele>
        <time>2012-05-08T18:08:45Z</time>
      </trkpt>
      <trkpt lat="59.9846679" lon="17.7380731">
        <ele>59.2584</ele>
        <time>2012-05-08T18:08:48Z</time>
      </trkpt>
      <trkpt lat="59.9847619" lon="17.7379635">
        <ele>64.5457</ele>
        <time>2012-05-08T18:08:53Z</time>
      </trkpt>
      <trkpt lat="59.9848837" lon="17.7378566">
        <ele>75.1202</ele>
        <time>2012-05-08T18:08:59Z</time>
      </trkpt>
      <trkpt lat="59.9849382" lon="17.7377682">
        <ele>79.446</ele>
        <time>2012-05-08T18:09:02Z</time>
      </trkpt>
      <trkpt lat="59.9850361" lon="17.7377826">
        <ele>84.7334</ele>
        <time>2012-05-08T18:09:08Z</time>
      </trkpt>
      <trkpt lat="59.9851579" lon="17.7376931">
        <ele>87.1366</ele>
        <time>2012-05-08T18:09:15Z</time>
      </trkpt>
      <trkpt lat="59.9852273" lon="17.7376209">
        <ele>87.1366</ele>
        <time>2012-05-08T18:09:20Z</time>
      </trkpt>
      <trkpt lat="59.9852708" lon="17.73771">
        <ele>80.8882</ele>
        <time>2012-05-08T18:09:25Z</time>
      </trkpt>
      <trkpt lat="59.9853738" lon="17.7377992">
        <ele>73.1976</ele>
        <time>2012-05-08T18:09:32Z</time>
      </trkpt>
      <trkpt lat="59.9854423" lon="17.7378873">
        <ele>69.3523</ele>
        <time>2012-05-08T18:09:37Z</time>
      </trkpt>
      <trkpt lat="59.9854791" lon="17.7379627">
        <ele>63.5844</ele>
        <time>2012-05-08T18:09:41Z</time>
      </trkpt>
      <trkpt lat="59.9855758" lon="17.7380976">
        <ele>61.181</ele>
        <time>2012-05-08T18:09:48Z</time>
      </trkpt>
      <trkpt lat="59.9856368" lon="17.7381265">
        <ele>63.5844</ele>
        <time>2012-05-08T18:09:52Z</time>
      </trkpt>
      <trkpt lat="59.9857492" lon="17.7381784">
        <ele>65.0264</ele>
        <time>2012-05-08T18:09:58Z</time>
      </trkpt>
      <trkpt lat="59.9858177" lon="17.7382019">
        <ele>65.9877</ele>
        <time>2012-05-08T18:10:03Z</time>
      </trkpt>
      <trkpt lat="59.9858883" lon="17.7382789">
        <ele>62.6229</ele>
        <time>2012-05-08T18:10:10Z</time>
      </trkpt>
      <trkpt lat="59.9859587" lon="17.7382785">
        <ele>63.1036</ele>
        <time>2012-05-08T18:10:14Z</time>
      </trkpt>
      <trkpt lat="59.9860535" lon="17.738316">
        <ele>63.5844</ele>
        <time>2012-05-08T18:10:19Z</time>
      </trkpt>
      <trkpt lat="59.9861699" lon="17.7383587">
        <ele>65.9877</ele>
        <time>2012-05-08T18:10:25Z</time>
      </trkpt>
      <trkpt lat="59.9862741" lon="17.73848">
        <ele>67.4297</ele>
        <time>2012-05-08T18:10:31Z</time>
      </trkpt>
      <trkpt lat="59.9863482" lon="17.7385313">
        <ele>73.1976</ele>
        <time>2012-05-08T18:10:36Z</time>
      </trkpt>
      <trkpt lat="59.9864546" lon="17.7385927">
        <ele>78.9655</ele>
        <time>2012-05-08T18:10:41Z</time>
      </trkpt>
      <trkpt lat="59.9865434" lon="17.738631">
        <ele>81.3688</ele>
        <time>2012-05-08T18:10:47Z</time>
      </trkpt>
      <trkpt lat="59.9866271" lon="17.738689">
        <ele>84.2527</ele>
        <time>2012-05-08T18:10:51Z</time>
      </trkpt>
      <trkpt lat="59.9866802" lon="17.7387643">
        <ele>84.7334</ele>
        <time>2012-05-08T18:10:54Z</time>
      </trkpt>
      <trkpt lat="59.9867899" lon="17.7388064">
        <ele>95.3077</ele>
        <time>2012-05-08T18:10:59Z</time>
      </trkpt>
      <trkpt lat="59.9869358" lon="17.7390824">
        <ele>90.9819</ele>
        <time>2012-05-08T18:11:06Z</time>
      </trkpt>
      <trkpt lat="59.98698" lon="17.7391777">
        <ele>82.8108</ele>
        <time>2012-05-08T18:11:12Z</time>
      </trkpt>
      <trkpt lat="59.9870464" lon="17.7393049">
        <ele>71.7555</ele>
        <time>2012-05-08T18:11:20Z</time>
      </trkpt>
      <trkpt lat="59.9871287" lon="17.7393497">
        <ele>69.8329</ele>
        <time>2012-05-08T18:11:26Z</time>
      </trkpt>
      <trkpt lat="59.9871629" lon="17.7393702">
        <ele>66.949</ele>
        <time>2012-05-08T18:11:29Z</time>
      </trkpt>
      <trkpt lat="59.9872274" lon="17.7393537">
        <ele>63.1036</ele>
        <time>2012-05-08T18:11:35Z</time>
      </trkpt>
      <trkpt lat="59.9872916" lon="17.7393622">
        <ele>62.6229</ele>
        <time>2012-05-08T18:11:40Z</time>
      </trkpt>
      <trkpt lat="59.9873243" lon="17.7393555">
        <ele>62.1423</ele>
        <time>2012-05-08T18:11:42Z</time>
      </trkpt>
      <trkpt lat="59.9873553" lon="17.7393461">
        <ele>61.181</ele>
        <time>2012-05-08T18:11:44Z</time>
      </trkpt>
      <trkpt lat="59.9874521" lon="17.7393399">
        <ele>59.7391</ele>
        <time>2012-05-08T18:11:50Z</time>
      </trkpt>
      <trkpt lat="59.9874732" lon="17.7393355">
        <ele>59.2584</ele>
        <time>2012-05-08T18:11:51Z</time>
      </trkpt>
      <trkpt lat="59.9875843" lon="17.7392961">
        <ele>58.7777</ele>
        <time>2012-05-08T18:11:59Z</time>
      </trkpt>
      <trkpt lat="59.9876734" lon="17.739284">
        <ele>56.3745</ele>
        <time>2012-05-08T18:12:05Z</time>
      </trkpt>
      <trkpt lat="59.9877999" lon="17.7392517">
        <ele>60.2197</ele>
        <time>2012-05-08T18:12:12Z</time>
      </trkpt>
      <trkpt lat="59.9879024" lon="17.7392751">
        <ele>61.6617</ele>
        <time>2012-05-08T18:12:19Z</time>
      </trkpt>
      <trkpt lat="59.9879751" lon="17.7392823">
        <ele>61.6617</ele>
        <time>2012-05-08T18:12:24Z</time>
      </trkpt>
      <trkpt lat="59.9880969" lon="17.7392552">
        <ele>65.9877</ele>
        <time>2012-05-08T18:12:30Z</time>
      </trkpt>
      <trkpt lat="59.9882241" lon="17.7391932">
        <ele>68.8716</ele>
        <time>2012-05-08T18:12:37Z</time>
      </trkpt>
      <trkpt lat="59.9883064" lon="17.7391588">
        <ele>70.3135</ele>
        <time>2012-05-08T18:12:42Z</time>
      </trkpt>
      <trkpt lat="59.9883664" lon="17.7391511">
        <ele>72.7169</ele>
        <time>2012-05-08T18:12:45Z</time>
      </trkpt>
      <trkpt lat="59.9884282" lon="17.7391413">
        <ele>68.3909</ele>
        <time>2012-05-08T18:12:52Z</time>
      </trkpt>
      <trkpt lat="59.9885384" lon="17.7391187">
        <ele>66.4683</ele>
        <time>2012-05-08T18:12:59Z</time>
      </trkpt>
      <trkpt lat="59.9885634" lon="17.7391144">
        <ele>68.3909</ele>
        <time>2012-05-08T18:13:00Z</time>
      </trkpt>
      <trkpt lat="59.9886743" lon="17.7390119">
        <ele>68.8716</ele>
        <time>2012-05-08T18:13:06Z</time>
      </trkpt>
      <trkpt lat="59.9887611" lon="17.7389438">
        <ele>69.3523</ele>
        <time>2012-05-08T18:13:13Z</time>
      </trkpt>
      <trkpt lat="59.9888138" lon="17.7389415">
        <ele>67.9103</ele>
        <time>2012-05-08T18:13:17Z</time>
      </trkpt>
      <trkpt lat="59.9888922" lon="17.7388895">
        <ele>66.4683</ele>
        <time>2012-05-08T18:13:23Z</time>
      </trkpt>
      <trkpt lat="59.9890103" lon="17.7387866">
        <ele>61.6617</ele>
        <time>2012-05-08T18:13:31Z</time>
      </trkpt>
      <trkpt lat="59.9890471" lon="17.7387622">
        <ele>60.7003</ele>
        <time>2012-05-08T18:13:33Z</time>
      </trkpt>
      <trkpt lat="59.9891285" lon="17.7386856">
        <ele>60.7003</ele>
        <time>2012-05-08T18:13:38Z</time>
      </trkpt>
      <trkpt lat="59.9892143" lon="17.7386079">
        <ele>58.7777</ele>
        <time>2012-05-08T18:13:44Z</time>
      </trkpt>
      <trkpt lat="59.9893238" lon="17.7385356">
        <ele>56.8551</ele>
        <time>2012-05-08T18:13:51Z</time>
      </trkpt>
      <trkpt lat="59.9894117" lon="17.7384462">
        <ele>56.3745</ele>
        <time>2012-05-08T18:13:57Z</time>
      </trkpt>
      <trkpt lat="59.989519" lon="17.7384208">
        <ele>57.8165</ele>
        <time>2012-05-08T18:14:03Z</time>
      </trkpt>
      <trkpt lat="59.9896076" lon="17.7384151">
        <ele>55.8938</ele>
        <time>2012-05-08T18:14:09Z</time>
      </trkpt>
      <trkpt lat="59.9896858" lon="17.7383902">
        <ele>58.2971</ele>
        <time>2012-05-08T18:14:15Z</time>
      </trkpt>
      <trkpt lat="59.9897344" lon="17.7383818">
        <ele>58.7777</ele>
        <time>2012-05-08T18:14:19Z</time>
      </trkpt>
      <trkpt lat="59.9898142" lon="17.7384064">
        <ele>51.5679</ele>
        <time>2012-05-08T18:14:26Z</time>
      </trkpt>
      <trkpt lat="59.9898773" lon="17.738403">
        <ele>52.0486</ele>
        <time>2012-05-08T18:14:30Z</time>
      </trkpt>
      <trkpt lat="59.9900086" lon="17.7382917">
        <ele>56.8551</ele>
        <time>2012-05-08T18:14:35Z</time>
      </trkpt>
      <trkpt lat="59.9901417" lon="17.7381956">
        <ele>59.2584</ele>
        <time>2012-05-08T18:14:42Z</time>
      </trkpt>
      <trkpt lat="59.9901588" lon="17.7381831">
        <ele>60.2197</ele>
        <time>2012-05-08T18:14:43Z</time>
      </trkpt>
      <trkpt lat="59.9902557" lon="17.7381411">
        <ele>61.181</ele>
        <time>2012-05-08T18:14:49Z</time>
      </trkpt>
      <trkpt lat="59.9902741" lon="17.7381495">
        <ele>61.181</ele>
        <time>2012-05-08T18:14:50Z</time>
      </trkpt>
      <trkpt lat="59.990377" lon="17.7381303">
        <ele>60.2197</ele>
        <time>2012-05-08T18:14:57Z</time>
      </trkpt>
      <trkpt lat="59.9904804" lon="17.7381111">
        <ele>62.1423</ele>
        <time>2012-05-08T18:15:03Z</time>
      </trkpt>
      <trkpt lat="59.9905053" lon="17.7381054">
        <ele>62.1423</ele>
        <time>2012-05-08T18:15:06Z</time>
      </trkpt>
      <trkpt lat="59.990641" lon="17.7379949">
        <ele>66.949</ele>
        <time>2012-05-08T18:15:13Z</time>
      </trkpt>
      <trkpt lat="59.990739" lon="17.7379324">
        <ele>69.3523</ele>
        <time>2012-05-08T18:15:19Z</time>
      </trkpt>
      <trkpt lat="59.990839" lon="17.7378474">
        <ele>65.0264</ele>
        <time>2012-05-08T18:15:26Z</time>
      </trkpt>
      <trkpt lat="59.990945" lon="17.7377826">
        <ele>64.0651</ele>
        <time>2012-05-08T18:15:33Z</time>
      </trkpt>
      <trkpt lat="59.9910477" lon="17.7377023">
        <ele>65.5071</ele>
        <time>2012-05-08T18:15:39Z</time>
      </trkpt>
      <trkpt lat="59.9911143" lon="17.7377013">
        <ele>67.4297</ele>
        <time>2012-05-08T18:15:43Z</time>
      </trkpt>
      <trkpt lat="59.9912272" lon="17.7376567">
        <ele>69.8329</ele>
        <time>2012-05-08T18:15:50Z</time>
      </trkpt>
      <trkpt lat="59.9913041" lon="17.7376828">
        <ele>72.7169</ele>
        <time>2012-05-08T18:15:54Z</time>
      </trkpt>
      <trkpt lat="59.9913225" lon="17.7377068">
        <ele>68.3909</ele>
        <time>2012-05-08T18:15:57Z</time>
      </trkpt>
      <trkpt lat="59.9914139" lon="17.7376333">
        <ele>64.5457</ele>
        <time>2012-05-08T18:16:03Z</time>
      </trkpt>
      <trkpt lat="59.9914256" lon="17.7376324">
        <ele>64.0651</ele>
        <time>2012-05-08T18:16:04Z</time>
      </trkpt>
      <trkpt lat="59.9915124" lon="17.7376123">
        <ele>66.4683</ele>
        <time>2012-05-08T18:16:09Z</time>
      </trkpt>
      <trkpt lat="59.9916563" lon="17.7376423">
        <ele>66.4683</ele>
        <time>2012-05-08T18:16:16Z</time>
      </trkpt>
      <trkpt lat="59.9917563" lon="17.7376173">
        <ele>71.2749</ele>
        <time>2012-05-08T18:16:21Z</time>
      </trkpt>
      <trkpt lat="59.9917931" lon="17.7376127">
        <ele>69.8329</ele>
        <time>2012-05-08T18:16:23Z</time>
      </trkpt>
      <trkpt lat="59.9919039" lon="17.7375936">
        <ele>75.1202</ele>
        <time>2012-05-08T18:16:29Z</time>
      </trkpt>
      <trkpt lat="59.9919261" lon="17.737592">
        <ele>76.0814</ele>
        <time>2012-05-08T18:16:30Z</time>
      </trkpt>
      <trkpt lat="59.9920276" lon="17.7375366">
        <ele>75.1202</ele>
        <time>2012-05-08T18:16:37Z</time>
      </trkpt>
      <trkpt lat="59.9920945" lon="17.737509">
        <ele>70.7942</ele>
        <time>2012-05-08T18:16:42Z</time>
      </trkpt>
      <trkpt lat="59.9921695" lon="17.737464">
        <ele>67.9103</ele>
        <time>2012-05-08T18:16:49Z</time>
      </trkpt>
      <trkpt lat="59.9922114" lon="17.7374972">
        <ele>56.8551</ele>
        <time>2012-05-08T18:16:55Z</time>
      </trkpt>
      <trkpt lat="59.9922759" lon="17.7374827">
        <ele>56.8551</ele>
        <time>2012-05-08T18:17:00Z</time>
      </trkpt>
      <trkpt lat="59.9922933" lon="17.7374905">
        <ele>58.2971</ele>
        <time>2012-05-08T18:17:01Z</time>
      </trkpt>
    </trkseg>
  </trk>
</gpx>